• Join FlightAware (Why Join?)
  • Login
  • US Flag 
06:33PM EDT


 

Airport Tracker/Info


-or-


 

Live Flight TrackerFlight Track Log ✈ AAR8732 ✈ 01-May-2014 ✈ RKJY / RSU - RKSS / GMP

Flight Track Log - Related Links

Times and Time Zones

All times are in EDT time to prevent confusion due to time zone crossing. See the AAR8732 flight status page for this flight to view local times or setup timezone preferences in your user account.

Time Position Orientation Groundspeed Altitude Reporting Facility
EDT Latitude Longitude Course Direction KTS MPH feet Rate Location/Type
07:57PM 35.1428 127.5263 346° North  Level Estimated
07:58PM 35.2185 127.5039 346° North  Level Estimated
07:59PM 35.2943 127.4815 346° North  Level Estimated
08:00PM 35.3700 127.4590 346° North  Level Estimated
08:01PM 35.4457 127.4365 346° North  Level Estimated
08:02PM 35.5214 127.4140 346° North  Level Estimated
08:03PM 35.5971 127.3914 346° North  Level Estimated
08:04PM 35.6729 127.3688 346° North  Level Estimated
08:05PM 35.7486 127.3461 346° North  Level Estimated
08:06PM 35.8243 127.3234 346° North  Level Estimated
08:07PM 35.8999 127.3007 346° North  Level Estimated
08:08PM 35.9757 127.2779 346° North  Level Estimated
08:09PM 36.0513 127.2550 346° North  Level Estimated
08:10PM 36.1270 127.2322 346° North  Level Estimated
08:11PM 36.2027 127.2092 346° North  Level Estimated
08:12PM 36.2784 127.1863 346° North  Level Estimated
08:13PM 36.3540 127.1632 346° North  Level Estimated
08:14PM 36.4297 127.1402 346° North  Level Estimated
08:15PM 36.5054 127.1171 346° North  Level Estimated
08:16PM 36.5810 127.0939 346° North  Level Estimated
08:17PM 36.6567 127.0707 346° North  Level Estimated
08:18PM 36.7323 127.0475 346° North  Level Estimated
08:19PM 36.8080 127.0242 346° North  Level Estimated
08:20PM 36.8836 127.0009 346° North  Level Estimated
08:21PM 36.9593 126.9775 346° North  Level Estimated
08:22PM 37.0349 126.9540 346° North  Level Estimated
08:23PM 37.1105 126.9306 346° North  Level Estimated
08:24PM 37.1861 126.9071 346° North  Level Estimated
08:25PM 37.2617 126.8835 346° North  Level Estimated
08:25PM 37.4195 126.9674 317° Northwest 164 189 3,600  Level FlightAware ADS-B (RKSM / SSN)
08:26PM 37.4288 126.9559 316° Northwest 165 190 3,300 -1,200 Descending FlightAware ADS-B (RKSM / SSN)
08:26PM 37.4373 126.9453 315° West 168 193 3,000 -1,020 Descending FlightAware ADS-B (RKSM / SSN)
08:26PM 37.4455 126.9350 315° West 168 193 2,800 -840 Descending FlightAware ADS-B (RKSM / SSN)
08:26PM 37.4531 126.9254 315° West 166 191 2,600 -840 Descending FlightAware ADS-B (RKSM / SSN)
08:27PM 37.4619 126.9144 316° Northwest 164 189 2,400 -840 Descending FlightAware ADS-B (RKSM / SSN)
08:27PM 37.4691 126.9055 316° Northwest 162 186 2,200 -840 Descending FlightAware ADS-B (RKSM / SSN)
08:27PM 37.4774 126.8952 316° Northwest 153 176 2,000 -780 Descending FlightAware ADS-B (RKSM / SSN)
08:27PM 37.4851 126.8856 315° West 145 167 1,800 -840 Descending FlightAware ADS-B (RKSM / SSN)
08:28PM 37.4917 126.8773 315° West 130 150 1,600 -900 Descending FlightAware ADS-B (RKSM / SSN)
08:28PM 37.4964 126.8715 315° West 127 146 1,400 -720 Descending FlightAware ADS-B (RKSM / SSN)
08:28PM 37.5060 126.8595 315° West 127 146 1,200 -720 Descending FlightAware ADS-B (RKSM / SSN)
08:28PM 37.5119 126.8520 315° West 130 150 1,000 -840 Descending FlightAware ADS-B (RKSM / SSN)
08:29PM 37.5188 126.8434 315° West 125 144 800 -720 Descending FlightAware ADS-B (RKSM / SSN)
08:29PM 37.5255 126.8350 316° Northwest 127 146 600 -540 Descending FlightAware ADS-B (RKSM / SSN)
08:29PM 37.5325 126.8262 316° Northwest 127 146 500 -420 Descending FlightAware ADS-B (RKSM / SSN)
08:32PM 37.5583 126.7906 312° West  Level Estimated
08:33PM 37.5583 126.7906 North  Level Estimated
08:34PM 37.5583 126.7906 North  Level Estimated
08:35PM 37.5583 126.7906 North  Level Estimated
08:36PM 37.5583 126.7906 North  Level Estimated
08:37PM 37.5583 126.7906 North  Level Estimated
08:38PM 37.5583 126.7906 North  Level Estimated
08:39PM 37.5583 126.7906 North  Level Estimated
08:40PM 37.5583 126.7906 North  Level Estimated
08:41PM 37.5583 126.7906 North  Level Estimated
08:42PM 37.5583 126.7906 North  Level Estimated
08:43PM 37.5583 126.7906 North  Level Estimated
08:44PM 37.5583 126.7906 North  Level Estimated
08:45PM 37.5583 126.7906 North  Level Estimated